Airfield :
LOGIN :

Register | Disclaimer

   EN    FR    IT 

 










Legend :    VFR   Marginal VFR   IFR   Intensive IFR   Very Intensive IFR
Visi :
Ceiling :
>= 8 km
>= 3000ft
5 to 8 km
1000 to 3000 ft
1500m to 5 km
500 to 1000 ft
800 to 1500m
200 to 500 ft
< 800m
< 200 ft
Symbols :   Thunderstorms  Fog  Heavy snow  Heavy precipitations  Wind > 20 kt
SIGMETs :     Misc.  Thunderstorms  Icing  Turbulence  Mountain Waves  Volcanic Ashes






- Airport Elevation : 112 ft
- IATA code : KIR


EIKY - Kerry Farranfore

CURRENT METAR :
  • 131630Z 33004KT 270V030 9999 BKN043 17/12 Q1014

EXPIRED METARs :
  • 131600Z 34005KT 280V060 9999 SCT020 BKN042 17/13 Q1015
  • 131530Z 35004KT 310V050 9999 SCT025 BKN040 17/12 Q1015
  • 131500Z 34005KT 280V060 9999 SCT030 OVC035 17/12 Q1015
  • 131430Z 34005KT 310V040 9999 FEW030 OVC039 17/12 Q1015
  • 131400Z 28003KT 220V360 9999 FEW024 OVC037 17/10 Q1015
  • 131330Z VRB02KT 9999 FEW024 BKN036 18/11 Q1015
  • 131300Z 35003KT 260V030 9999 OVC028 16/11 Q1016
  • 131230Z VRB02KT 9999 OVC029 16/12 Q1016
  • 131200Z VRB02KT 9999 OVC029 15/12 Q1016

TAF TAF EIKY
Valid from the 13 at 15:00 until the 14 at 00:00 UTC


131400Z 1315/1324 VRB03KT 9999 FEW025 BKN040



MET'MAP, your aeronautical weather chart ! - Copyright ORBIFLY December 2007 - Disclaimer

ORBIFLY MET'MAP TEAM :

Programming & Development : Alexandra Zaïnal
Original concept : Baudouin d'Aumeries
Technical & hardware support : Manuel Goepfert
Assistance : Marc-Olivier Méhu




SOURCES & CREDITS :

   NOAA